Time;durP1;ratioP1;P1;durP2;ratioP2;P2;SDS_P1;SDS_P2;PMS_P1;PMS_P2;Temp;Humidity;BMP_temperature;BMP_pressure;BME280_temperature;BME280_humidity;BME280_pressure;Samples;Min_cycle;Max_cycle;Signal;HPM_P1;HPM_P2
2021/05/15 00:00:55;;;;;;;12.27;4.74;;;;;;;16.44;65.09;100384.77;463208;112;922463;-68
2021/05/15 00:01:58;;;;;;;7.81;4.77;;;;;;;16.40;65.33;100386.39;464259;112;922680;-67
2021/05/15 00:03:00;;;;;;;7.70;4.75;;;;;;;16.38;65.41;100384.97;467226;110;922827;-67
2021/05/15 00:04:03;;;;;;;10.21;4.68;;;;;;;16.36;65.49;100387.17;462122;112;930473;-66
2021/05/15 00:05:08;;;;;;;9.60;5.17;;;;;;;16.33;65.65;100390.41;464183;110;930493;-66
2021/05/15 00:06:12;;;;;;;8.11;4.84;;;;;;;16.31;65.88;100396.20;463833;111;923082;-68
2021/05/15 00:07:14;;;;;;;12.20;4.98;;;;;;;16.30;66.06;100394.53;463367;111;922507;-68
2021/05/15 00:08:17;;;;;;;7.41;4.10;;;;;;;16.31;66.11;100398.95;462951;112;930471;-67
2021/05/15 00:09:20;;;;;;;11.84;4.79;;;;;;;16.32;66.15;100400.59;463282;112;924108;-67
2021/05/15 00:10:23;;;;;;;10.09;4.47;;;;;;;16.32;66.10;100402.53;463215;111;930561;-66
2021/05/15 00:11:25;;;;;;;15.00;4.83;;;;;;;16.28;66.08;100400.28;463490;112;922705;-68
2021/05/15 00:12:28;;;;;;;6.56;4.71;;;;;;;16.24;66.11;100407.39;462769;112;922434;-68
2021/05/15 00:13:30;;;;;;;9.99;5.17;;;;;;;16.21;66.17;100407.05;463859;110;922657;-67
2021/05/15 00:14:33;;;;;;;8.01;5.18;;;;;;;16.17;66.19;100406.74;463917;111;930424;-67
2021/05/15 00:15:35;;;;;;;12.15;5.76;;;;;;;16.11;66.25;100404.18;464146;111;922557;-67
2021/05/15 00:16:38;;;;;;;11.72;5.22;;;;;;;16.05;66.36;100414.28;462367;112;922862;-67
2021/05/15 00:17:41;;;;;;;13.15;5.77;;;;;;;16.00;66.45;100407.88;463932;111;922465;-68
2021/05/15 00:18:43;;;;;;;7.35;4.83;;;;;;;15.95;66.56;100413.31;465138;110;930388;-67
2021/05/15 00:19:48;;;;;;;5.65;4.45;;;;;;;15.90;66.66;100410.50;463201;111;923271;-68
2021/05/15 00:20:50;;;;;;;7.86;5.11;;;;;;;15.86;66.79;100421.18;462394;112;922516;-68
2021/05/15 00:21:53;;;;;;;11.14;5.13;;;;;;;15.83;66.94;100418.92;464710;110;923155;-68
2021/05/15 00:22:56;;;;;;;6.81;5.51;;;;;;;15.79;67.00;100410.36;463694;111;930654;-68
2021/05/15 00:23:58;;;;;;;10.10;4.81;;;;;;;15.76;67.02;100410.88;465575;112;930489;-68
2021/05/15 00:25:01;;;;;;;8.56;4.98;;;;;;;15.73;67.08;100408.62;464674;110;922668;-68
2021/05/15 00:26:03;;;;;;;8.74;5.43;;;;;;;15.69;67.09;100412.97;463117;112;922922;-68
2021/05/15 00:27:06;;;;;;;8.80;4.67;;;;;;;15.66;67.20;100412.62;463175;111;930690;-67
2021/05/15 00:28:09;;;;;;;9.41;5.27;;;;;;;15.61;67.33;100423.54;463180;110;922558;-68
2021/05/15 00:29:11;;;;;;;13.82;5.41;;;;;;;15.58;67.49;100413.06;464817;112;922472;-68
2021/05/15 00:30:16;;;;;;;7.69;5.25;;;;;;;15.54;67.62;100415.49;462370;112;923119;-67
2021/05/15 00:31:20;;;;;;;16.09;5.71;;;;;;;15.51;67.75;100426.10;464094;112;923007;-68
2021/05/15 00:32:24;;;;;;;11.15;4.76;;;;;;;15.48;67.87;100421.95;464095;110;923056;-68
2021/05/15 00:33:27;;;;;;;9.68;5.18;;;;;;;15.48;67.99;100427.45;462990;112;923395;-68
2021/05/15 00:34:30;;;;;;;12.59;5.86;;;;;;;15.47;68.09;100420.28;463401;111;923329;-69
2021/05/15 00:35:32;;;;;;;18.93;5.50;;;;;;;15.48;68.14;100426.62;463737;110;922474;-68
2021/05/15 00:36:36;;;;;;;9.10;5.04;;;;;;;15.49;68.26;100422.80;463854;112;922667;-68
2021/05/15 00:37:38;;;;;;;9.39;4.82;;;;;;;15.50;68.35;100429.92;463926;111;922966;-67
2021/05/15 00:38:41;;;;;;;10.54;5.05;;;;;;;15.50;68.45;100428.02;463435;112;930399;-68
2021/05/15 00:39:44;;;;;;;11.43;5.49;;;;;;;15.53;68.53;100432.22;464169;110;923085;-68
2021/05/15 00:40:47;;;;;;;11.02;5.29;;;;;;;15.57;68.55;100436.13;464504;112;930657;-68
2021/05/15 00:41:50;;;;;;;11.39;5.36;;;;;;;15.59;68.48;100444.96;465068;112;922991;-68
2021/05/15 00:42:53;;;;;;;9.01;5.50;;;;;;;15.62;68.40;100436.20;463944;111;930541;-69
2021/05/15 00:44:12;;;;;;;13.45;4.67;;;;;;;15.62;68.40;100436.20;463919;110;922501;-68
2021/05/15 00:45:06;;;;;;;15.28;5.61;;;;;;;15.64;68.25;100434.05;461131;112;923401;-68
2021/05/15 00:46:09;;;;;;;10.12;4.96;;;;;;;15.67;68.16;100433.53;464011;110;922427;-69
2021/05/15 00:47:15;;;;;;;15.40;5.41;;;;;;;15.68;68.05;100437.95;464506;110;923107;-68
2021/05/15 00:48:17;;;;;;;10.19;5.81;;;;;;;15.68;68.05;100437.95;462783;110;922677;-67
2021/05/15 00:49:20;;;;;;;11.42;4.99;;;;;;;15.68;67.92;100426.95;465334;112;923198;-68
2021/05/15 00:50:23;;;;;;;9.66;5.68;;;;;;;15.66;67.91;100418.95;462616;112;930563;-68
2021/05/15 00:51:25;;;;;;;12.22;5.47;;;;;;;15.63;67.89;100430.46;462846;110;930433;-68
2021/05/15 00:52:33;;;;;;;8.09;6.07;;;;;;;15.60;67.92;100430.95;464452;111;922894;-69
2021/05/15 00:53:35;;;;;;;23.06;6.38;;;;;;;15.57;67.99;100431.47;464052;112;930565;-68
2021/05/15 00:54:40;;;;;;;9.02;5.45;;;;;;;15.56;68.04;100432.54;464772;110;922740;-68
2021/05/15 00:55:42;;;;;;;11.11;5.72;;;;;;;15.56;68.08;100432.54;466784;109;922966;-69
2021/05/15 00:56:46;;;;;;;9.46;6.39;;;;;;;15.56;68.01;100429.80;466809;110;922589;-68
2021/05/15 00:57:49;;;;;;;14.17;5.52;;;;;;;15.56;67.90;100431.70;467319;112;922541;-69
2021/05/15 00:58:52;;;;;;;9.83;6.27;;;;;;;15.55;67.87;100430.06;467207;109;922923;-69
2021/05/15 00:59:55;;;;;;;10.77;5.67;;;;;;;15.53;67.82;100435.80;466427;109;922987;-67
2021/05/15 01:00:58;;;;;;;8.23;5.42;;;;;;;15.54;67.68;100439.39;467421;109;923064;-69
2021/05/15 01:02:00;;;;;;;10.06;6.10;;;;;;;15.54;67.62;100437.47;466307;112;922543;-68
2021/05/15 01:03:03;;;;;;;8.89;5.45;;;;;;;15.54;67.60;100437.47;468080;110;923104;-69
2021/05/15 01:04:05;;;;;;;10.52;5.17;;;;;;;15.53;67.87;100433.05;468428;109;930547;-68
2021/05/15 01:05:10;;;;;;;8.64;5.62;;;;;;;15.55;68.05;100432.81;467997;109;922791;-68
2021/05/15 01:06:13;;;;;;;12.82;6.14;;;;;;;15.55;68.05;100433.62;467081;112;930443;-67
2021/05/15 01:07:15;;;;;;;8.13;5.60;;;;;;;15.56;67.88;100434.45;468551;110;922980;-68
2021/05/15 01:08:19;;;;;;;9.17;5.50;;;;;;;15.55;67.66;100441.86;467725;109;923127;-69
2021/05/15 01:09:21;;;;;;;10.84;5.29;;;;;;;15.53;67.67;100446.80;468498;110;922878;-68
2021/05/15 01:10:24;;;;;;;14.51;6.22;;;;;;;15.50;67.68;100439.01;466622;112;922825;-68
2021/05/15 01:11:26;;;;;;;10.43;6.69;;;;;;;15.48;67.68;100440.36;467645;110;923322;-68
2021/05/15 01:12:30;;;;;;;12.06;6.10;;;;;;;15.45;67.68;100448.00;466794;109;930543;-69
2021/05/15 01:13:34;;;;;;;8.76;6.63;;;;;;;15.43;67.71;100452.10;469426;109;923357;-68
2021/05/15 01:14:39;;;;;;;14.00;6.27;;;;;;;15.41;67.68;100446.84;466949;112;922541;-69
2021/05/15 01:15:41;;;;;;;15.29;5.86;;;;;;;15.39;67.70;100438.02;468389;112;930144;-69
2021/05/15 01:16:44;;;;;;;10.09;6.67;;;;;;;15.39;67.69;100443.50;468766;109;922745;-67
2021/05/15 01:17:51;;;;;;;14.69;5.81;;;;;;;15.40;67.66;100438.84;467512;109;931032;-67
2021/05/15 01:18:54;;;;;;;12.77;6.39;;;;;;;15.40;67.67;100447.92;466513;112;922920;-68
2021/05/15 01:19:57;;;;;;;12.20;6.22;;;;;;;15.40;67.61;100442.43;467884;110;923193;-68
2021/05/15 01:21:01;;;;;;;16.13;6.39;;;;;;;15.40;67.61;100456.16;467573;109;922460;-69
2021/05/15 01:22:09;;;;;;;10.06;5.37;;;;;;;15.40;67.54;100447.92;467728;109;922324;-69
2021/05/15 01:23:11;;;;;;;11.39;5.94;;;;;;;15.40;67.45;100450.67;466439;112;922449;-67
2021/05/15 01:24:14;;;;;;;16.71;6.89;;;;;;;15.37;67.40;100453.93;467182;112;922529;-67
2021/05/15 01:25:18;;;;;;;7.43;6.71;;;;;;;15.36;67.43;100455.01;467722;109;930302;-68
2021/05/15 01:26:27;;;;;;;11.64;6.64;;;;;;;15.34;67.43;100459.91;466484;109;922583;-69
2021/05/15 01:27:30;;;;;;;12.76;6.13;;;;;;;15.35;67.43;100453.34;467010;109;923076;-67
2021/05/15 01:28:32;;;;;;;11.45;5.73;;;;;;;15.35;67.64;100455.25;467325;109;923255;-68
2021/05/15 01:29:36;;;;;;;10.51;5.37;;;;;;;15.38;67.67;100465.76;467185;109;922959;-69
2021/05/15 01:30:39;;;;;;;11.09;5.82;;;;;;;15.39;67.68;100459.99;467074;109;930584;-68
2021/05/15 01:31:41;;;;;;;9.33;6.11;;;;;;;15.41;67.67;100463.33;467319;112;922352;-67
2021/05/15 01:32:45;;;;;;;8.63;6.07;;;;;;;15.43;67.61;100463.93;466959;112;922759;-69
2021/05/15 01:33:48;;;;;;;10.36;6.35;;;;;;;15.45;67.59;100456.25;468560;109;922679;-69
2021/05/15 01:34:51;;;;;;;9.29;5.09;;;;;;;15.47;67.66;100460.67;468605;109;922751;-67
2021/05/15 01:35:55;;;;;;;11.48;6.42;;;;;;;15.48;67.73;100465.92;468640;109;922920;-69
2021/05/15 01:36:58;;;;;;;8.65;5.59;;;;;;;15.50;67.66;100460.98;460070;112;923043;-68
2021/05/15 01:38:00;;;;;;;7.55;5.37;;;;;;;15.50;67.55;100463.73;460583;111;922640;-68
2021/05/15 01:39:03;;;;;;;11.01;5.68;;;;;;;15.51;67.48;100459.91;467574;109;922487;-68
2021/05/15 01:40:08;;;;;;;9.68;5.29;;;;;;;15.51;67.48;100465.41;468049;110;922608;-68
2021/05/15 01:41:14;;;;;;;8.54;5.51;;;;;;;15.53;67.36;100463.28;466232;112;922491;-69
2021/05/15 01:42:19;;;;;;;9.60;6.03;;;;;;;15.53;67.20;100460.54;467897;110;922561;-69
2021/05/15 01:43:22;;;;;;;8.83;4.96;;;;;;;15.54;67.00;100469.62;466880;109;922696;-68
2021/05/15 01:44:25;;;;;;;9.73;5.71;;;;;;;15.52;66.89;100475.36;466806;109;922504;-69
2021/05/15 01:45:27;;;;;;;11.00;5.17;;;;;;;15.50;66.87;100473.89;467857;112;922946;-68
2021/05/15 01:46:30;;;;;;;7.72;5.21;;;;;;;15.49;66.89;100483.25;467459;110;922455;-68
2021/05/15 01:47:37;;;;;;;7.61;5.22;;;;;;;15.45;66.83;100475.48;467191;109;923010;-68
2021/05/15 01:48:41;;;;;;;9.17;5.72;;;;;;;15.42;66.84;100467.75;466619;112;922553;-68
2021/05/15 01:49:48;;;;;;;7.42;5.42;;;;;;;15.41;66.91;100477.07;467092;110;922831;-69
2021/05/15 01:51:03;;;;;;;14.89;6.29;;;;;;;15.40;67.01;100475.40;466740;110;922975;-69
2021/05/15 01:52:05;;;;;;;13.69;5.61;;;;;;;15.39;67.15;100468.23;466849;109;923176;-68
2021/05/15 01:53:08;;;;;;;10.71;5.84;;;;;;;15.39;67.27;100476.48;466557;112;922349;-68
2021/05/15 01:54:10;;;;;;;10.98;6.03;;;;;;;15.42;67.38;100494.39;466604;112;922917;-68
2021/05/15 01:55:16;;;;;;;13.00;5.84;;;;;;;15.42;67.42;100486.98;466612;109;923038;-68
2021/05/15 01:56:29;;;;;;;16.64;5.88;;;;;;;15.42;67.45;100494.39;463987;110;923155;-68
2021/05/15 01:57:32;;;;;;;8.87;6.34;;;;;;;15.41;67.50;100498.22;463880;112;923531;-68
2021/05/15 01:58:35;;;;;;;25.72;13.07;;;;;;;15.41;67.67;100504.55;463011;112;922400;-68
2021/05/15 01:59:40;;;;;;;24.94;10.51;;;;;;;15.42;67.62;100514.46;464079;111;930541;-69
2021/05/15 02:00:43;;;;;;;32.23;14.83;;;;;;;15.45;67.61;100529.59;464574;110;923098;-69
2021/05/15 02:01:45;;;;;;;36.45;18.01;;;;;;;15.46;67.56;100525.78;463243;112;923095;-68
2021/05/15 02:02:48;;;;;;;49.93;22.63;;;;;;;15.45;67.43;100522.19;464249;111;922988;-69
2021/05/15 02:03:51;;;;;;;48.17;22.95;;;;;;;15.45;67.37;100530.44;463093;110;922359;-69
2021/05/15 02:04:55;;;;;;;51.74;25.68;;;;;;;15.45;67.36;100541.42;463598;111;930480;-69
2021/05/15 02:05:58;;;;;;;66.07;26.67;;;;;;;15.46;67.26;100539.52;463723;110;922883;-68
2021/05/15 02:07:01;;;;;;;54.71;26.84;;;;;;;15.45;67.12;100538.68;464424;112;922787;-69
2021/05/15 02:08:04;;;;;;;50.95;25.19;;;;;;;15.45;66.98;100549.67;463871;111;923003;-68
2021/05/15 02:09:06;;;;;;;45.91;22.34;;;;;;;15.45;66.84;100551.58;451538;115;923080;-68
2021/05/15 02:10:10;;;;;;;48.67;22.63;;;;;;;15.45;66.69;100554.33;448617;116;923202;-68
2021/05/15 02:11:16;;;;;;;35.26;20.80;;;;;;;15.44;66.59;100560.90;448682;114;930470;-68
2021/05/15 02:12:19;;;;;;;42.13;21.63;;;;;;;15.43;66.50;100565.59;450345;114;922516;-68
2021/05/15 02:13:22;;;;;;;43.92;22.02;;;;;;;15.45;66.45;100570.81;449002;116;922490;-69
2021/05/15 02:14:25;;;;;;;47.87;23.58;;;;;;;15.46;66.42;100569.74;447941;116;922894;-68
2021/05/15 02:15:27;;;;;;;43.11;23.24;;;;;;;15.49;66.37;100568.43;452754;116;922780;-69
2021/05/15 02:16:31;;;;;;;42.76;22.80;;;;;;;15.51;66.26;100563.50;448188;114;922906;-69
2021/05/15 02:17:33;;;;;;;40.09;22.15;;;;;;;15.53;66.14;100558.63;449746;116;922761;-68
2021/05/15 02:18:36;;;;;;;36.59;21.78;;;;;;;15.55;66.03;100559.23;452094;116;922783;-68
2021/05/15 02:19:38;;;;;;;34.20;19.93;;;;;;;15.57;65.88;100557.88;449380;116;930614;-68
2021/05/15 02:20:43;;;;;;;40.12;19.09;;;;;;;15.59;65.70;100565.89;448043;116;923360;-68
2021/05/15 02:21:45;;;;;;;33.46;19.01;;;;;;;15.60;65.59;100573.06;449535;116;930506;-68
2021/05/15 02:22:48;;;;;;;32.18;18.40;;;;;;;15.61;65.52;100585.70;448684;116;922437;-68
2021/05/15 02:23:51;;;;;;;31.27;16.87;;;;;;;15.61;65.49;100591.19;448767;116;930396;-68
2021/05/15 02:24:53;;;;;;;27.57;15.95;;;;;;;15.61;65.47;100594.77;448813;114;923031;-68
2021/05/15 02:25:56;;;;;;;28.05;15.81;;;;;;;15.61;65.40;100607.69;448126;116;930293;-68
2021/05/15 02:26:58;;;;;;;25.19;14.49;;;;;;;15.62;65.39;100603.86;448390;116;922578;-69
2021/05/15 02:28:01;;;;;;;15.44;12.25;;;;;;;15.62;65.41;100601.95;449832;114;930455;-68
2021/05/15 02:29:03;;;;;;;23.61;13.67;;;;;;;15.62;65.39;100579.13;448357;116;923042;-67
2021/05/15 02:30:07;;;;;;;17.49;13.53;;;;;;;15.62;65.38;100559.88;449022;116;930615;-69
2021/05/15 02:31:10;;;;;;;18.01;11.43;;;;;;;15.63;65.44;100545.06;448474;116;922510;-68
2021/05/15 02:32:12;;;;;;;21.21;12.78;;;;;;;15.65;65.41;100523.67;449413;114;922763;-68
2021/05/15 02:33:15;;;;;;;18.66;10.85;;;;;;;15.67;65.41;100508.58;450167;114;930589;-69
2021/05/15 02:34:17;;;;;;;14.23;10.73;;;;;;;15.69;65.29;100520.16;448003;116;922471;-69
2021/05/15 02:35:21;;;;;;;14.31;9.98;;;;;;;15.72;65.24;100527.90;447873;116;930522;-68
2021/05/15 02:36:25;;;;;;;13.89;10.22;;;;;;;15.73;65.14;100532.32;447372;114;923548;-68
2021/05/15 02:37:27;;;;;;;14.40;9.83;;;;;;;15.73;65.03;100548.81;450573;114;922936;-69
2021/05/15 02:38:30;;;;;;;18.60;9.39;;;;;;;15.72;64.99;100566.38;447777;116;925350;-68
2021/05/15 02:39:32;;;;;;;12.02;8.50;;;;;;;15.69;65.14;100561.40;448122;114;930218;-67
2021/05/15 02:40:35;;;;;;;11.70;9.15;;;;;;;15.68;65.22;100547.89;448270;116;922769;-69
2021/05/15 02:41:37;;;;;;;15.45;9.37;;;;;;;15.66;65.29;100545.39;448556;114;930062;-69
2021/05/15 02:42:40;;;;;;;14.42;11.41;;;;;;;15.67;65.19;100571.80;449720;114;922790;-69
2021/05/15 02:43:53;;;;;;;20.23;12.88;;;;;;;15.65;65.06;100590.47;446968;118;930280;-68
2021/05/15 02:45:16;;;;;;;21.99;13.04;;;;;;;15.61;65.21;100570.04;440922;118;925296;-68
2021/05/15 02:46:20;;;;;;;19.42;12.95;;;;;;;15.57;65.43;100581.78;448970;117;923044;-67
2021/05/15 02:47:23;;;;;;;23.17;13.16;;;;;;;15.56;65.53;100591.10;448966;116;922476;-69
2021/05/15 02:48:26;;;;;;;25.50;13.92;;;;;;;15.58;65.53;100594.45;454475;113;922385;-68
2021/05/15 02:49:30;;;;;;;16.48;12.32;;;;;;;15.59;65.53;100576.88;448718;116;922937;-69
2021/05/15 02:50:34;;;;;;;14.99;11.95;;;;;;;15.60;65.65;100571.12;449876;116;923025;-69
2021/05/15 02:51:36;;;;;;;15.00;13.06;;;;;;;15.64;65.65;100571.47;449534;116;930342;-68
2021/05/15 02:52:39;;;;;;;17.80;13.25;;;;;;;15.65;65.54;100562.98;449284;116;922407;-68
2021/05/15 02:53:42;;;;;;;20.74;14.07;;;;;;;15.66;65.52;100564.62;448787;114;922809;-69
2021/05/15 02:54:44;;;;;;;17.54;12.53;;;;;;;15.68;65.53;100586.37;449403;116;923089;-68
2021/05/15 02:55:47;;;;;;;26.21;14.28;;;;;;;15.70;65.59;100589.73;454623;113;922630;-68
2021/05/15 02:56:50;;;;;;;17.67;13.19;;;;;;;15.71;65.66;100588.65;462994;113;930429;-68
2021/05/15 02:57:54;;;;;;;20.98;11.12;;;;;;;15.74;65.64;100560.64;464420;112;922860;-69
2021/05/15 02:58:56;;;;;;;15.89;11.66;;;;;;;15.76;65.63;100531.84;464778;113;930499;-69
2021/05/15 02:59:59;;;;;;;16.79;10.41;;;;;;;15.78;65.70;100502.16;466868;113;923244;-67
2021/05/15 03:01:01;;;;;;;12.87;9.79;;;;;;;15.79;65.46;100468.09;466648;110;930277;-68
2021/05/15 03:02:04;;;;;;;15.60;10.28;;;;;;;15.79;65.36;100468.09;465604;111;922453;-69
2021/05/15 03:03:09;;;;;;;15.33;9.49;;;;;;;15.80;65.27;100479.92;467426;111;922395;-68
2021/05/15 03:04:11;;;;;;;21.28;10.17;;;;;;;15.81;65.29;100487.09;456996;114;922512;-69
2021/05/15 03:05:16;;;;;;;15.98;10.21;;;;;;;15.83;65.27;100487.66;465858;111;923013;-68
2021/05/15 03:06:21;;;;;;;13.94;9.90;;;;;;;15.83;65.27;100482.99;460504;112;923057;-69
2021/05/15 03:07:23;;;;;;;18.15;10.54;;;;;;;15.86;65.15;100484.42;463848;112;922970;-68
2021/05/15 03:08:26;;;;;;;15.66;11.12;;;;;;;15.88;65.05;100481.42;466559;110;923833;-68
2021/05/15 03:09:29;;;;;;;17.49;10.78;;;;;;;15.91;64.91;100489.16;459015;113;922928;-67
2021/05/15 03:10:32;;;;;;;24.30;12.65;;;;;;;15.92;64.90;100488.91;466868;110;922679;-69
2021/05/15 03:11:34;;;;;;;18.79;14.29;;;;;;;15.94;64.89;100492.22;466929;111;922883;-69
2021/05/15 03:12:37;;;;;;;26.83;17.13;;;;;;;15.96;64.82;100487.31;467660;110;930552;-68
2021/05/15 03:13:40;;;;;;;28.52;14.83;;;;;;;15.99;64.87;100488.74;457605;114;922480;-68
2021/05/15 03:14:43;;;;;;;21.24;14.90;;;;;;;15.98;64.87;100481.57;458007;113;922534;-68
2021/05/15 03:15:45;;;;;;;27.71;14.63;;;;;;;15.98;64.96;100474.16;460948;112;930497;-69
2021/05/15 03:16:48;;;;;;;23.21;14.34;;;;;;;15.99;65.03;100464.80;466517;112;922617;-68
2021/05/15 03:17:52;;;;;;;27.66;14.79;;;;;;;15.98;65.03;100454.07;466096;110;922822;-69
2021/05/15 03:18:54;;;;;;;22.85;14.59;;;;;;;15.98;65.02;100456.82;466680;110;930428;-68
2021/05/15 03:19:57;;;;;;;18.21;14.29;;;;;;;15.98;65.12;100460.41;457186;112;922607;-67
2021/05/15 03:20:59;;;;;;;22.69;14.91;;;;;;;15.98;65.09;100471.41;458933;114;922881;-69
2021/05/15 03:22:03;;;;;;;40.79;14.67;;;;;;;15.99;65.07;100488.74;454973;114;930443;-68
2021/05/15 03:23:05;;;;;;;25.77;14.19;;;;;;;16.00;65.12;100504.13;455247;114;922737;-67
2021/05/15 03:24:08;;;;;;;29.83;15.25;;;;;;;16.01;65.16;100525.05;458585;113;922574;-67
2021/05/15 03:25:12;;;;;;;22.07;14.21;;;;;;;16.00;65.14;100537.97;457490;114;922617;-68
2021/05/15 03:26:16;;;;;;;24.53;14.54;;;;;;;15.99;65.14;100533.55;456007;114;922588;-69
2021/05/15 03:27:18;;;;;;;20.78;13.54;;;;;;;15.98;65.32;100506.32;458993;112;923012;-69
2021/05/15 03:28:21;;;;;;;20.59;12.87;;;;;;;15.99;65.49;100519.80;458215;114;923269;-68
2021/05/15 03:29:23;;;;;;;25.24;15.59;;;;;;;15.98;65.46;100542.91;458527;114;930534;-67
2021/05/15 03:30:26;;;;;;;17.27;12.41;;;;;;;15.98;65.46;100567.66;458942;114;930616;-69
2021/05/15 03:31:29;;;;;;;24.45;13.19;;;;;;;15.96;65.50;100567.06;457712;114;922980;-68
2021/05/15 03:32:32;;;;;;;19.20;12.59;;;;;;;15.96;65.52;100549.73;458220;112;923317;-68
2021/05/15 03:33:34;;;;;;;15.50;12.69;;;;;;;15.94;65.86;100505.97;459006;113;930328;-68
2021/05/15 03:34:37;;;;;;;17.02;12.05;;;;;;;15.94;65.86;100505.97;458220;114;930268;-67
2021/05/15 03:35:40;;;;;;;17.99;12.82;;;;;;;15.94;65.35;100491.39;458474;112;922939;-68
2021/05/15 03:36:44;;;;;;;27.60;17.24;;;;;;;15.88;65.43;100468.48;459427;112;923254;-67
2021/05/15 03:37:47;;;;;;;26.08;16.29;;;;;;;15.84;65.56;100437.92;457887;114;923029;-68
2021/05/15 03:38:49;;;;;;;21.67;15.59;;;;;;;15.83;65.46;100410.67;459230;114;922457;-67
2021/05/15 03:39:52;;;;;;;21.83;13.85;;;;;;;15.80;65.45;100383.70;458818;112;930477;-68
2021/05/15 03:40:54;;;;;;;22.36;13.72;;;;;;;15.75;65.51;100378.97;459300;112;922756;-68
2021/05/15 03:41:57;;;;;;;27.76;12.57;;;;;;;15.73;65.56;100370.13;458882;114;923120;-68
2021/05/15 03:43:00;;;;;;;14.47;12.19;;;;;;;15.71;65.68;100371.48;459182;114;930516;-66
2021/05/15 03:44:03;;;;;;;26.82;12.43;;;;;;;15.68;65.84;100393.97;458606;112;922769;-66
2021/05/15 03:45:08;;;;;;;14.96;11.79;;;;;;;15.68;65.99;100435.20;459033;114;922916;-66
2021/05/15 03:46:12;;;;;;;20.43;13.29;;;;;;;15.69;66.09;100456.11;457774;114;923314;-68
2021/05/15 03:47:14;;;;;;;24.16;13.04;;;;;;;15.70;66.14;100457.78;458635;114;922448;-68
2021/05/15 03:48:20;;;;;;;18.27;11.95;;;;;;;15.71;66.16;100470.45;457890;112;930230;-67
2021/05/15 03:49:21;;;;;;;15.80;11.79;;;;;;;15.70;66.29;100497.09;459003;114;922899;-68
2021/05/15 03:50:26;;;;;;;19.90;11.99;;;;;;;15.71;66.40;100528.98;458488;114;922963;-68
2021/05/15 03:51:29;;;;;;;17.27;11.52;;;;;;;15.71;66.40;100528.98;458750;114;930590;-68
2021/05/15 03:52:32;;;;;;;23.37;12.65;;;;;;;15.73;66.46;100510.33;458068;114;922572;-68
2021/05/15 03:53:35;;;;;;;25.54;11.49;;;;;;;15.75;66.52;100499.92;458342;112;930530;-66
2021/05/15 03:54:37;;;;;;;15.47;11.57;;;;;;;15.77;66.51;100488.66;458247;114;922514;-70
2021/05/15 03:55:40;;;;;;;13.71;10.51;;;;;;;15.80;66.55;100479.92;458871;114;922507;-68
2021/05/15 03:56:45;;;;;;;15.29;9.98;;;;;;;15.82;66.52;100470.33;456028;113;923088;-68
2021/05/15 03:57:47;;;;;;;12.58;9.34;;;;;;;15.83;66.46;100460.16;465023;112;922850;-66
2021/05/15 03:58:50;;;;;;;16.26;9.65;;;;;;;15.84;66.34;100464.58;474213;110;929963;-69
2021/05/15 03:59:52;;;;;;;12.08;9.07;;;;;;;15.84;66.32;100461.83;474278;110;922574;-67
2021/05/15 04:00:55;;;;;;;11.99;9.49;;;;;;;15.86;66.31;100462.42;474919;108;930216;-69
2021/05/15 04:01:57;;;;;;;16.02;9.55;;;;;;;15.89;66.28;100456.41;475250;109;923088;-67
2021/05/15 04:03:00;;;;;;;9.55;7.77;;;;;;;15.90;66.26;100463.58;477754;108;930692;-69
2021/05/15 04:04:03;;;;;;;18.31;8.46;;;;;;;15.93;66.17;100465.00;475210;110;930418;-69
2021/05/15 04:05:07;;;;;;;19.40;9.03;;;;;;;15.95;66.14;100469.14;474787;109;922421;-66
2021/05/15 04:06:10;;;;;;;16.92;7.61;;;;;;;15.97;66.09;100472.48;474545;108;922490;-68
2021/05/15 04:07:13;;;;;;;14.65;7.69;;;;;;;16.00;66.03;100474.72;475942;110;922979;-68
2021/05/15 04:08:16;;;;;;;11.85;7.57;;;;;;;16.03;65.99;100485.23;475202;108;922487;-67
2021/05/15 04:09:19;;;;;;;12.69;7.97;;;;;;;16.06;65.93;100498.46;474628;108;930433;-70
2021/05/15 04:10:23;;;;;;;12.00;7.04;;;;;;;16.08;65.82;100509.22;475954;108;930505;-68
2021/05/15 04:11:33;;;;;;;13.04;7.94;;;;;;;16.08;65.67;100528.47;474827;108;922578;-68
2021/05/15 04:12:34;;;;;;;13.81;7.94;;;;;;;16.07;65.70;100535.89;473263;108;923192;-68
2021/05/15 04:14:45;;;;;;;13.18;7.56;;;;;;;16.06;65.75;100547.13;473082;108;930087;-69
2021/05/15 04:15:56;;;;;;;16.07;7.29;;;;;;;16.06;65.79;100553.47;473802;110;922701;-68
2021/05/15 04:17:13;;;;;;;9.27;6.86;;;;;;;16.04;65.80;100558.41;472461;108;923011;-68
2021/05/15 04:18:10;;;;;;;16.29;7.53;;;;;;;16.03;65.97;100523.73;472113;108;922778;-67
2021/05/15 04:19:13;;;;;;;18.15;7.55;;;;;;;16.03;66.15;100484.39;473935;108;922508;-68
2021/05/15 04:20:16;;;;;;;15.66;7.73;;;;;;;16.03;66.03;100451.39;473763;110;922521;-67
2021/05/15 04:21:18;;;;;;;11.72;7.63;;;;;;;16.02;65.93;100439.55;475464;109;930471;-68
2021/05/15 04:22:21;;;;;;;15.68;8.76;;;;;;;16.02;65.96;100447.81;474980;109;922544;-68
2021/05/15 04:23:24;;;;;;;16.57;7.70;;;;;;;16.03;65.98;100468.73;474039;108;922436;-67
2021/05/15 04:24:26;;;;;;;13.66;6.99;;;;;;;16.04;65.96;100492.40;474365;109;923126;-67
2021/05/15 04:25:29;;;;;;;17.43;8.66;;;;;;;16.05;65.99;100509.70;474866;109;922519;-69
2021/05/15 04:26:33;;;;;;;12.93;8.66;;;;;;;16.01;66.26;100497.55;474468;109;922939;-68
2021/05/15 04:27:37;;;;;;;10.79;8.40;;;;;;;16.01;66.26;100497.55;473535;110;930231;-67
2021/05/15 04:28:39;;;;;;;16.49;9.08;;;;;;;15.97;66.26;100491.73;473583;108;922894;-67
2021/05/15 04:29:44;;;;;;;8.83;7.64;;;;;;;15.93;66.34;100493.34;473834;109;922558;-68
2021/05/15 04:30:48;;;;;;;11.62;8.43;;;;;;;15.88;66.45;100484.98;473415;110;930503;-66
2021/05/15 04:31:54;;;;;;;14.03;9.13;;;;;;;15.82;66.55;100483.27;474417;108;923024;-68
2021/05/15 04:32:56;;;;;;;18.13;8.74;;;;;;;15.77;66.81;100485.91;473697;108;930312;-67
2021/05/15 04:33:58;;;;;;;21.33;9.28;;;;;;;15.72;66.89;100483.08;467166;111;922664;-68
2021/05/15 04:35:01;;;;;;;12.17;8.05;;;;;;;15.72;67.01;100485.83;467181;110;922571;-68
2021/05/15 04:36:04;;;;;;;15.72;8.80;;;;;;;15.72;67.11;100485.83;475582;108;923454;-68
2021/05/15 04:37:07;;;;;;;12.62;8.33;;;;;;;15.75;67.19;100477.09;456496;112;922421;-68
2021/05/15 04:38:09;;;;;;;16.85;8.85;;;;;;;15.78;67.20;100488.41;473555;108;922551;-68
2021/05/15 04:39:12;;;;;;;18.92;9.52;;;;;;;15.82;67.19;100486.82;474777;109;930355;-69
2021/05/15 04:40:16;;;;;;;16.73;8.51;;;;;;;15.89;67.28;100494.90;473464;110;922606;-71
2021/05/15 04:41:19;;;;;;;15.76;7.49;;;;;;;15.95;67.22;100504.06;475481;108;922515;-69
2021/05/15 04:42:22;;;;;;;14.61;8.32;;;;;;;16.00;67.13;100518.72;475364;108;930379;-66
2021/05/15 04:43:24;;;;;;;21.57;8.55;;;;;;;16.07;66.97;100527.64;474375;110;922546;-68
2021/05/15 04:44:28;;;;;;;23.77;8.53;;;;;;;16.13;66.82;100537.63;474745;108;922912;-68
2021/05/15 04:45:32;;;;;;;13.57;8.10;;;;;;;16.18;66.71;100542.37;473310;108;923340;-67
2021/05/15 04:46:35;;;;;;;22.07;8.19;;;;;;;16.23;66.66;100539.70;473365;108;922524;-68
2021/05/15 04:47:38;;;;;;;16.53;8.69;;;;;;;16.30;66.43;100531.27;473000;109;930533;-66
2021/05/15 04:48:44;;;;;;;19.28;7.83;;;;;;;16.35;66.41;100531.34;474761;110;930289;-65